sensor_id;sensor_type;location;lat;lon;timestamp;P1;durP1;ratioP1;P2;durP2;ratioP2
25549;SDS011;13444;50.562;7.262;2023-03-13T00:00:29;17.17;;;3.70;;
25549;SDS011;13444;50.562;7.262;2023-03-13T00:02:54;18.95;;;3.88;;
25549;SDS011;13444;50.562;7.262;2023-03-13T00:05:20;24.92;;;4.43;;
25549;SDS011;13444;50.562;7.262;2023-03-13T00:07:45;17.73;;;4.68;;
25549;SDS011;13444;50.562;7.262;2023-03-13T00:10:11;26.10;;;4.75;;
25549;SDS011;13444;50.562;7.262;2023-03-13T00:12:36;20.40;;;4.10;;
25549;SDS011;13444;50.562;7.262;2023-03-13T00:15:02;15.88;;;4.53;;
25549;SDS011;13444;50.562;7.262;2023-03-13T00:17:28;20.83;;;4.57;;
25549;SDS011;13444;50.562;7.262;2023-03-13T00:19:54;19.20;;;4.43;;
25549;SDS011;13444;50.562;7.262;2023-03-13T00:22:19;23.30;;;4.75;;
25549;SDS011;13444;50.562;7.262;2023-03-13T00:24:45;21.05;;;4.68;;
25549;SDS011;13444;50.562;7.262;2023-03-13T00:27:11;18.45;;;4.07;;
25549;SDS011;13444;50.562;7.262;2023-03-13T00:29:36;20.23;;;3.92;;
25549;SDS011;13444;50.562;7.262;2023-03-13T00:32:02;21.30;;;4.32;;
25549;SDS011;13444;50.562;7.262;2023-03-13T00:34:27;20.27;;;4.70;;
25549;SDS011;13444;50.562;7.262;2023-03-13T00:36:53;19.88;;;3.65;;
25549;SDS011;13444;50.562;7.262;2023-03-13T00:39:20;22.67;;;4.38;;
25549;SDS011;13444;50.562;7.262;2023-03-13T00:41:45;18.35;;;4.43;;
25549;SDS011;13444;50.562;7.262;2023-03-13T00:44:12;19.10;;;4.13;;
25549;SDS011;13444;50.562;7.262;2023-03-13T00:46:38;19.80;;;3.85;;
25549;SDS011;13444;50.562;7.262;2023-03-13T00:49:03;11.20;;;3.50;;
25549;SDS011;13444;50.562;7.262;2023-03-13T00:51:29;16.15;;;4.18;;
25549;SDS011;13444;50.562;7.262;2023-03-13T00:53:55;16.40;;;3.85;;
25549;SDS011;13444;50.562;7.262;2023-03-13T00:56:24;21.83;;;3.95;;
25549;SDS011;13444;50.562;7.262;2023-03-13T00:58:50;19.52;;;4.03;;
25549;SDS011;13444;50.562;7.262;2023-03-13T01:01:17;17.05;;;3.80;;
25549;SDS011;13444;50.562;7.262;2023-03-13T01:03:46;17.98;;;3.42;;
25549;SDS011;13444;50.562;7.262;2023-03-13T01:06:14;15.88;;;3.72;;
25549;SDS011;13444;50.562;7.262;2023-03-13T01:08:41;20.85;;;3.80;;
25549;SDS011;13444;50.562;7.262;2023-03-13T01:11:11;21.15;;;4.20;;
25549;SDS011;13444;50.562;7.262;2023-03-13T01:13:39;12.80;;;3.30;;
25549;SDS011;13444;50.562;7.262;2023-03-13T01:16:06;17.35;;;3.58;;
25549;SDS011;13444;50.562;7.262;2023-03-13T01:18:33;24.92;;;4.57;;
25549;SDS011;13444;50.562;7.262;2023-03-13T01:21:00;21.65;;;4.18;;
25549;SDS011;13444;50.562;7.262;2023-03-13T01:23:26;18.40;;;3.92;;
25549;SDS011;13444;50.562;7.262;2023-03-13T01:25:55;22.23;;;4.15;;
25549;SDS011;13444;50.562;7.262;2023-03-13T01:28:21;20.60;;;3.90;;
25549;SDS011;13444;50.562;7.262;2023-03-13T01:30:48;18.90;;;4.55;;
25549;SDS011;13444;50.562;7.262;2023-03-13T01:33:13;19.33;;;4.25;;
25549;SDS011;13444;50.562;7.262;2023-03-13T01:35:39;17.60;;;4.53;;
25549;SDS011;13444;50.562;7.262;2023-03-13T01:38:05;15.57;;;3.25;;
25549;SDS011;13444;50.562;7.262;2023-03-13T01:40:31;18.05;;;3.95;;
25549;SDS011;13444;50.562;7.262;2023-03-13T01:43:21;16.35;;;3.75;;
25549;SDS011;13444;50.562;7.262;2023-03-13T01:45:58;14.93;;;3.72;;
25549;SDS011;13444;50.562;7.262;2023-03-13T01:48:50;13.32;;;2.97;;
25549;SDS011;13444;50.562;7.262;2023-03-13T01:51:25;15.43;;;3.70;;
25549;SDS011;13444;50.562;7.262;2023-03-13T01:54:05;13.38;;;2.92;;
25549;SDS011;13444;50.562;7.262;2023-03-13T01:56:34;14.88;;;3.40;;
25549;SDS011;13444;50.562;7.262;2023-03-13T01:59:06;11.75;;;3.15;;
25549;SDS011;13444;50.562;7.262;2023-03-13T02:01:33;12.60;;;3.10;;
25549;SDS011;13444;50.562;7.262;2023-03-13T02:03:59;8.30;;;2.60;;
25549;SDS011;13444;50.562;7.262;2023-03-13T02:06:26;11.27;;;2.80;;
25549;SDS011;13444;50.562;7.262;2023-03-13T02:09:01;11.43;;;2.85;;
25549;SDS011;13444;50.562;7.262;2023-03-13T02:14:16;12.75;;;2.53;;
25549;SDS011;13444;50.562;7.262;2023-03-13T02:16:44;12.70;;;2.95;;
25549;SDS011;13444;50.562;7.262;2023-03-13T02:27:41;6.95;;;2.13;;
25549;SDS011;13444;50.562;7.262;2023-03-13T02:30:10;8.20;;;1.92;;
25549;SDS011;13444;50.562;7.262;2023-03-13T02:32:37;8.68;;;2.53;;
25549;SDS011;13444;50.562;7.262;2023-03-13T02:35:05;6.63;;;1.80;;
25549;SDS011;13444;50.562;7.262;2023-03-13T02:37:33;6.80;;;2.15;;
25549;SDS011;13444;50.562;7.262;2023-03-13T02:40:01;5.25;;;1.65;;
25549;SDS011;13444;50.562;7.262;2023-03-13T02:42:31;7.53;;;1.40;;
25549;SDS011;13444;50.562;7.262;2023-03-13T02:44:56;6.35;;;1.52;;
25549;SDS011;13444;50.562;7.262;2023-03-13T02:47:23;6.40;;;1.88;;
25549;SDS011;13444;50.562;7.262;2023-03-13T02:49:49;7.55;;;2.10;;
25549;SDS011;13444;50.562;7.262;2023-03-13T02:54:46;6.53;;;1.23;;
25549;SDS011;13444;50.562;7.262;2023-03-13T02:57:13;4.22;;;1.48;;
25549;SDS011;13444;50.562;7.262;2023-03-13T02:59:39;3.20;;;1.33;;
25549;SDS011;13444;50.562;7.262;2023-03-13T03:02:05;3.25;;;1.10;;
25549;SDS011;13444;50.562;7.262;2023-03-13T03:04:30;5.47;;;1.85;;
25549;SDS011;13444;50.562;7.262;2023-03-13T03:06:56;2.65;;;1.00;;
25549;SDS011;13444;50.562;7.262;2023-03-13T03:09:22;2.60;;;1.13;;
25549;SDS011;13444;50.562;7.262;2023-03-13T03:11:48;4.40;;;1.13;;
25549;SDS011;13444;50.562;7.262;2023-03-13T03:14:14;4.85;;;1.65;;
25549;SDS011;13444;50.562;7.262;2023-03-13T03:16:40;2.47;;;0.85;;
25549;SDS011;13444;50.562;7.262;2023-03-13T03:19:06;2.22;;;0.90;;
25549;SDS011;13444;50.562;7.262;2023-03-13T03:21:32;3.45;;;1.20;;
25549;SDS011;13444;50.562;7.262;2023-03-13T03:23:58;2.92;;;0.95;;
25549;SDS011;13444;50.562;7.262;2023-03-13T03:26:24;2.47;;;0.80;;
25549;SDS011;13444;50.562;7.262;2023-03-13T03:28:49;2.35;;;0.90;;
25549;SDS011;13444;50.562;7.262;2023-03-13T03:31:15;5.68;;;1.02;;
25549;SDS011;13444;50.562;7.262;2023-03-13T03:33:41;3.78;;;1.10;;
25549;SDS011;13444;50.562;7.262;2023-03-13T03:36:08;2.75;;;0.90;;
25549;SDS011;13444;50.562;7.262;2023-03-13T03:38:37;4.00;;;0.82;;
25549;SDS011;13444;50.562;7.262;2023-03-13T03:41:03;1.42;;;0.80;;
25549;SDS011;13444;50.562;7.262;2023-03-13T03:43:30;1.65;;;1.00;;
25549;SDS011;13444;50.562;7.262;2023-03-13T03:45:56;1.98;;;1.05;;
25549;SDS011;13444;50.562;7.262;2023-03-13T03:48:21;2.75;;;0.88;;
25549;SDS011;13444;50.562;7.262;2023-03-13T03:50:47;1.52;;;0.80;;
25549;SDS011;13444;50.562;7.262;2023-03-13T03:53:13;1.45;;;0.73;;
25549;SDS011;13444;50.562;7.262;2023-03-13T03:55:38;2.15;;;0.60;;
25549;SDS011;13444;50.562;7.262;2023-03-13T03:58:04;1.73;;;0.60;;
25549;SDS011;13444;50.562;7.262;2023-03-13T04:00:29;1.83;;;0.50;;
25549;SDS011;13444;50.562;7.262;2023-03-13T04:02:55;2.08;;;0.70;;
25549;SDS011;13444;50.562;7.262;2023-03-13T04:05:21;2.03;;;0.63;;
25549;SDS011;13444;50.562;7.262;2023-03-13T04:07:47;2.38;;;0.60;;
25549;SDS011;13444;50.562;7.262;2023-03-13T04:10:13;1.42;;;0.60;;
25549;SDS011;13444;50.562;7.262;2023-03-13T04:12:39;1.95;;;0.63;;
25549;SDS011;13444;50.562;7.262;2023-03-13T04:15:05;0.82;;;0.50;;
25549;SDS011;13444;50.562;7.262;2023-03-13T04:17:31;0.73;;;0.57;;
25549;SDS011;13444;50.562;7.262;2023-03-13T04:19:57;0.85;;;0.45;;
25549;SDS011;13444;50.562;7.262;2023-03-13T04:22:23;0.68;;;0.60;;
25549;SDS011;13444;50.562;7.262;2023-03-13T04:24:48;0.95;;;0.70;;
25549;SDS011;13444;50.562;7.262;2023-03-13T04:27:14;0.60;;;0.50;;
25549;SDS011;13444;50.562;7.262;2023-03-13T04:29:40;1.73;;;0.60;;
25549;SDS011;13444;50.562;7.262;2023-03-13T04:32:05;1.63;;;0.52;;
25549;SDS011;13444;50.562;7.262;2023-03-13T04:34:31;0.50;;;0.50;;
25549;SDS011;13444;50.562;7.262;2023-03-13T04:36:57;0.63;;;0.47;;
25549;SDS011;13444;50.562;7.262;2023-03-13T04:39:22;1.02;;;0.43;;
25549;SDS011;13444;50.562;7.262;2023-03-13T04:41:52;0.60;;;0.50;;
25549;SDS011;13444;50.562;7.262;2023-03-13T04:44:19;2.05;;;0.40;;
25549;SDS011;13444;50.562;7.262;2023-03-13T04:46:46;0.65;;;0.45;;
25549;SDS011;13444;50.562;7.262;2023-03-13T04:49:12;0.40;;;0.40;;
25549;SDS011;13444;50.562;7.262;2023-03-13T04:51:38;1.75;;;0.52;;
25549;SDS011;13444;50.562;7.262;2023-03-13T04:54:05;0.40;;;0.40;;
25549;SDS011;13444;50.562;7.262;2023-03-13T04:56:30;0.80;;;0.50;;
25549;SDS011;13444;50.562;7.262;2023-03-13T04:58:56;1.10;;;0.60;;
25549;SDS011;13444;50.562;7.262;2023-03-13T05:01:21;0.73;;;0.60;;
25549;SDS011;13444;50.562;7.262;2023-03-13T05:03:47;0.30;;;0.30;;
25549;SDS011;13444;50.562;7.262;2023-03-13T05:06:12;0.70;;;0.45;;
25549;SDS011;13444;50.562;7.262;2023-03-13T05:08:38;0.38;;;0.38;;
25549;SDS011;13444;50.562;7.262;2023-03-13T05:11:03;1.30;;;0.50;;
25549;SDS011;13444;50.562;7.262;2023-03-13T05:13:29;0.38;;;0.38;;
25549;SDS011;13444;50.562;7.262;2023-03-13T05:15:55;0.30;;;0.30;;
25549;SDS011;13444;50.562;7.262;2023-03-13T05:18:20;0.43;;;0.40;;
25549;SDS011;13444;50.562;7.262;2023-03-13T05:20:46;0.52;;;0.40;;
25549;SDS011;13444;50.562;7.262;2023-03-13T05:23:12;0.30;;;0.30;;
25549;SDS011;13444;50.562;7.262;2023-03-13T05:25:37;0.40;;;0.40;;
25549;SDS011;13444;50.562;7.262;2023-03-13T05:28:03;0.95;;;0.40;;
25549;SDS011;13444;50.562;7.262;2023-03-13T05:30:29;0.88;;;0.40;;
25549;SDS011;13444;50.562;7.262;2023-03-13T05:32:54;1.85;;;0.50;;
25549;SDS011;13444;50.562;7.262;2023-03-13T05:35:20;0.40;;;0.40;;
25549;SDS011;13444;50.562;7.262;2023-03-13T05:37:45;0.50;;;0.50;;
25549;SDS011;13444;50.562;7.262;2023-03-13T05:40:11;0.50;;;0.50;;
25549;SDS011;13444;50.562;7.262;2023-03-13T05:42:37;0.30;;;0.30;;
25549;SDS011;13444;50.562;7.262;2023-03-13T05:45:03;0.75;;;0.50;;
25549;SDS011;13444;50.562;7.262;2023-03-13T05:47:29;0.40;;;0.40;;
25549;SDS011;13444;50.562;7.262;2023-03-13T05:49:54;0.95;;;0.60;;
25549;SDS011;13444;50.562;7.262;2023-03-13T05:52:20;0.40;;;0.40;;
25549;SDS011;13444;50.562;7.262;2023-03-13T05:54:45;0.50;;;0.50;;
25549;SDS011;13444;50.562;7.262;2023-03-13T05:57:11;0.40;;;0.40;;
25549;SDS011;13444;50.562;7.262;2023-03-13T05:59:36;1.15;;;0.52;;
25549;SDS011;13444;50.562;7.262;2023-03-13T06:02:02;1.20;;;0.40;;
25549;SDS011;13444;50.562;7.262;2023-03-13T06:04:28;0.90;;;0.45;;
25549;SDS011;13444;50.562;7.262;2023-03-13T06:06:53;0.30;;;0.30;;
25549;SDS011;13444;50.562;7.262;2023-03-13T06:09:19;0.43;;;0.43;;
25549;SDS011;13444;50.562;7.262;2023-03-13T06:11:45;0.35;;;0.35;;
25549;SDS011;13444;50.562;7.262;2023-03-13T06:14:10;0.40;;;0.40;;
25549;SDS011;13444;50.562;7.262;2023-03-13T06:16:36;0.40;;;0.40;;
25549;SDS011;13444;50.562;7.262;2023-03-13T06:19:01;0.55;;;0.47;;
25549;SDS011;13444;50.562;7.262;2023-03-13T06:21:27;1.15;;;0.40;;
25549;SDS011;13444;50.562;7.262;2023-03-13T06:23:53;0.30;;;0.30;;
25549;SDS011;13444;50.562;7.262;2023-03-13T06:26:19;0.47;;;0.32;;
25549;SDS011;13444;50.562;7.262;2023-03-13T06:28:45;0.50;;;0.40;;
25549;SDS011;13444;50.562;7.262;2023-03-13T06:31:12;0.40;;;0.40;;
25549;SDS011;13444;50.562;7.262;2023-03-13T06:33:38;1.60;;;0.40;;
25549;SDS011;13444;50.562;7.262;2023-03-13T06:36:03;0.60;;;0.60;;
25549;SDS011;13444;50.562;7.262;2023-03-13T06:38:30;0.68;;;0.47;;
25549;SDS011;13444;50.562;7.262;2023-03-13T06:40:56;0.52;;;0.50;;
25549;SDS011;13444;50.562;7.262;2023-03-13T06:43:21;0.60;;;0.60;;
25549;SDS011;13444;50.562;7.262;2023-03-13T06:45:47;0.60;;;0.60;;
25549;SDS011;13444;50.562;7.262;2023-03-13T06:48:13;0.75;;;0.50;;
25549;SDS011;13444;50.562;7.262;2023-03-13T06:50:39;0.85;;;0.60;;
25549;SDS011;13444;50.562;7.262;2023-03-13T06:53:05;1.67;;;0.65;;
25549;SDS011;13444;50.562;7.262;2023-03-13T06:55:31;0.60;;;0.47;;
25549;SDS011;13444;50.562;7.262;2023-03-13T06:57:57;0.60;;;0.60;;
25549;SDS011;13444;50.562;7.262;2023-03-13T07:00:23;0.80;;;0.63;;
25549;SDS011;13444;50.562;7.262;2023-03-13T07:02:49;1.25;;;0.77;;
25549;SDS011;13444;50.562;7.262;2023-03-13T07:05:15;1.67;;;0.68;;
25549;SDS011;13444;50.562;7.262;2023-03-13T07:07:41;1.63;;;1.00;;
25549;SDS011;13444;50.562;7.262;2023-03-13T07:10:07;1.30;;;0.65;;
25549;SDS011;13444;50.562;7.262;2023-03-13T07:12:36;1.42;;;1.05;;
25549;SDS011;13444;50.562;7.262;2023-03-13T07:15:02;1.45;;;0.90;;
25549;SDS011;13444;50.562;7.262;2023-03-13T07:17:28;2.85;;;1.38;;
25549;SDS011;13444;50.562;7.262;2023-03-13T07:19:54;3.17;;;1.50;;
25549;SDS011;13444;50.562;7.262;2023-03-13T07:22:19;3.25;;;1.13;;
25549;SDS011;13444;50.562;7.262;2023-03-13T07:24:45;2.88;;;1.48;;
25549;SDS011;13444;50.562;7.262;2023-03-13T07:27:11;2.17;;;1.50;;
25549;SDS011;13444;50.562;7.262;2023-03-13T07:29:37;2.50;;;1.42;;
25549;SDS011;13444;50.562;7.262;2023-03-13T07:32:02;4.57;;;1.45;;
25549;SDS011;13444;50.562;7.262;2023-03-13T07:34:28;4.45;;;1.73;;
25549;SDS011;13444;50.562;7.262;2023-03-13T07:36:54;6.80;;;1.70;;
25549;SDS011;13444;50.562;7.262;2023-03-13T07:39:19;2.70;;;1.15;;
25549;SDS011;13444;50.562;7.262;2023-03-13T07:41:45;5.15;;;1.70;;
25549;SDS011;13444;50.562;7.262;2023-03-13T07:44:10;3.60;;;1.42;;
25549;SDS011;13444;50.562;7.262;2023-03-13T07:46:36;4.15;;;1.30;;
25549;SDS011;13444;50.562;7.262;2023-03-13T07:49:01;2.78;;;1.63;;
25549;SDS011;13444;50.562;7.262;2023-03-13T07:51:27;2.83;;;1.70;;
25549;SDS011;13444;50.562;7.262;2023-03-13T07:53:52;2.42;;;1.35;;
25549;SDS011;13444;50.562;7.262;2023-03-13T07:56:22;2.67;;;1.25;;
25549;SDS011;13444;50.562;7.262;2023-03-13T07:58:48;3.08;;;1.40;;
25549;SDS011;13444;50.562;7.262;2023-03-13T08:01:15;1.60;;;1.35;;
25549;SDS011;13444;50.562;7.262;2023-03-13T08:03:45;3.75;;;1.48;;
25549;SDS011;13444;50.562;7.262;2023-03-13T08:06:16;5.65;;;1.55;;
25549;SDS011;13444;50.562;7.262;2023-03-13T08:08:43;3.88;;;1.48;;
25549;SDS011;13444;50.562;7.262;2023-03-13T08:11:22;3.60;;;1.70;;
25549;SDS011;13444;50.562;7.262;2023-03-13T08:13:50;5.40;;;1.60;;
25549;SDS011;13444;50.562;7.262;2023-03-13T08:16:20;4.30;;;1.50;;
25549;SDS011;13444;50.562;7.262;2023-03-13T08:18:51;4.10;;;1.60;;
25549;SDS011;13444;50.562;7.262;2023-03-13T08:21:19;6.65;;;2.08;;
25549;SDS011;13444;50.562;7.262;2023-03-13T08:23:47;4.28;;;1.58;;
25549;SDS011;13444;50.562;7.262;2023-03-13T08:26:17;5.68;;;1.83;;
25549;SDS011;13444;50.562;7.262;2023-03-13T08:28:45;6.38;;;1.83;;
25549;SDS011;13444;50.562;7.262;2023-03-13T08:31:22;4.43;;;1.70;;
25549;SDS011;13444;50.562;7.262;2023-03-13T08:33:53;4.25;;;1.75;;
25549;SDS011;13444;50.562;7.262;2023-03-13T08:36:19;6.18;;;1.70;;
25549;SDS011;13444;50.562;7.262;2023-03-13T08:38:48;6.80;;;1.95;;
25549;SDS011;13444;50.562;7.262;2023-03-13T08:41:15;4.13;;;1.85;;
25549;SDS011;13444;50.562;7.262;2023-03-13T08:43:50;3.88;;;1.60;;
25549;SDS011;13444;50.562;7.262;2023-03-13T08:46:16;3.35;;;1.52;;
25549;SDS011;13444;50.562;7.262;2023-03-13T08:48:42;4.20;;;1.85;;
25549;SDS011;13444;50.562;7.262;2023-03-13T08:51:09;6.78;;;2.10;;
25549;SDS011;13444;50.562;7.262;2023-03-13T08:53:37;4.93;;;1.70;;
25549;SDS011;13444;50.562;7.262;2023-03-13T08:56:04;4.25;;;1.90;;
25549;SDS011;13444;50.562;7.262;2023-03-13T08:58:30;8.07;;;1.80;;
25549;SDS011;13444;50.562;7.262;2023-03-13T09:01:03;3.78;;;1.63;;
25549;SDS011;13444;50.562;7.262;2023-03-13T09:03:37;4.75;;;1.70;;
25549;SDS011;13444;50.562;7.262;2023-03-13T09:06:03;3.90;;;1.70;;
25549;SDS011;13444;50.562;7.262;2023-03-13T09:08:29;5.13;;;1.50;;
25549;SDS011;13444;50.562;7.262;2023-03-13T09:10:59;4.03;;;1.45;;
25549;SDS011;13444;50.562;7.262;2023-03-13T09:13:30;3.03;;;1.42;;
25549;SDS011;13444;50.562;7.262;2023-03-13T09:15:59;5.93;;;1.50;;
25549;SDS011;13444;50.562;7.262;2023-03-13T09:18:27;3.35;;;1.40;;
25549;SDS011;13444;50.562;7.262;2023-03-13T09:20:52;4.35;;;1.30;;
25549;SDS011;13444;50.562;7.262;2023-03-13T09:23:19;3.00;;;1.08;;
25549;SDS011;13444;50.562;7.262;2023-03-13T09:25:47;4.47;;;1.85;;
25549;SDS011;13444;50.562;7.262;2023-03-13T09:28:13;1.90;;;1.10;;
25549;SDS011;13444;50.562;7.262;2023-03-13T09:30:39;1.38;;;1.00;;
25549;SDS011;13444;50.562;7.262;2023-03-13T09:33:05;2.58;;;1.40;;
25549;SDS011;13444;50.562;7.262;2023-03-13T09:35:30;1.27;;;1.13;;
25549;SDS011;13444;50.562;7.262;2023-03-13T09:37:56;1.65;;;1.10;;
25549;SDS011;13444;50.562;7.262;2023-03-13T09:40:22;3.20;;;1.15;;
25549;SDS011;13444;50.562;7.262;2023-03-13T09:42:51;2.75;;;1.45;;
25549;SDS011;13444;50.562;7.262;2023-03-13T09:45:33;4.18;;;1.13;;
25549;SDS011;13444;50.562;7.262;2023-03-13T09:48:04;1.63;;;1.02;;
25549;SDS011;13444;50.562;7.262;2023-03-13T09:53:53;2.10;;;1.30;;
25549;SDS011;13444;50.562;7.262;2023-03-13T09:56:46;1.77;;;0.75;;
25549;SDS011;13444;50.562;7.262;2023-03-13T09:59:36;1.60;;;1.02;;
25549;SDS011;13444;50.562;7.262;2023-03-13T10:02:56;1.92;;;1.10;;
25549;SDS011;13444;50.562;7.262;2023-03-13T10:05:02;1.70;;;1.30;;
25549;SDS011;13444;50.562;7.262;2023-03-13T10:07:46;3.13;;;1.45;;
25549;SDS011;13444;50.562;7.262;2023-03-13T10:10:13;3.85;;;1.30;;
25549;SDS011;13444;50.562;7.262;2023-03-13T10:12:46;1.75;;;0.88;;
25549;SDS011;13444;50.562;7.262;2023-03-13T10:15:19;5.03;;;1.30;;
25549;SDS011;13444;50.562;7.262;2023-03-13T10:17:53;2.15;;;1.23;;
25549;SDS011;13444;50.562;7.262;2023-03-13T10:20:26;3.17;;;1.30;;
25549;SDS011;13444;50.562;7.262;2023-03-13T10:22:59;3.30;;;1.17;;
25549;SDS011;13444;50.562;7.262;2023-03-13T10:25:34;2.22;;;1.33;;
25549;SDS011;13444;50.562;7.262;2023-03-13T10:28:14;3.05;;;1.33;;
25549;SDS011;13444;50.562;7.262;2023-03-13T10:30:47;2.58;;;1.52;;
25549;SDS011;13444;50.562;7.262;2023-03-13T10:33:17;4.53;;;1.50;;
25549;SDS011;13444;50.562;7.262;2023-03-13T10:35:58;3.40;;;1.70;;
25549;SDS011;13444;50.562;7.262;2023-03-13T10:38:50;3.22;;;1.40;;
25549;SDS011;13444;50.562;7.262;2023-03-13T10:41:34;4.82;;;1.55;;
25549;SDS011;13444;50.562;7.262;2023-03-13T10:44:04;2.35;;;1.20;;
25549;SDS011;13444;50.562;7.262;2023-03-13T10:46:33;4.50;;;1.55;;
25549;SDS011;13444;50.562;7.262;2023-03-13T10:49:03;3.85;;;1.63;;
25549;SDS011;13444;50.562;7.262;2023-03-13T10:51:47;2.63;;;1.80;;
25549;SDS011;13444;50.562;7.262;2023-03-13T10:54:24;2.42;;;1.58;;
25549;SDS011;13444;50.562;7.262;2023-03-13T10:56:50;2.30;;;1.52;;
25549;SDS011;13444;50.562;7.262;2023-03-13T10:59:31;5.00;;;2.35;;
25549;SDS011;13444;50.562;7.262;2023-03-13T11:01:57;2.83;;;2.05;;
25549;SDS011;13444;50.562;7.262;2023-03-13T11:04:32;5.10;;;2.05;;
25549;SDS011;13444;50.562;7.262;2023-03-13T11:10:18;2.75;;;1.48;;
25549;SDS011;13444;50.562;7.262;2023-03-13T11:12:54;3.03;;;1.80;;
25549;SDS011;13444;50.562;7.262;2023-03-13T11:18:39;4.75;;;1.50;;
25549;SDS011;13444;50.562;7.262;2023-03-13T11:20:49;3.97;;;1.40;;
25549;SDS011;13444;50.562;7.262;2023-03-13T11:28:46;2.38;;;1.40;;
25549;SDS011;13444;50.562;7.262;2023-03-13T11:31:41;1.77;;;1.63;;
25549;SDS011;13444;50.562;7.262;2023-03-13T11:34:14;3.42;;;1.38;;
25549;SDS011;13444;50.562;7.262;2023-03-13T11:37:01;3.13;;;1.63;;
25549;SDS011;13444;50.562;7.262;2023-03-13T11:39:51;4.03;;;1.58;;
25549;SDS011;13444;50.562;7.262;2023-03-13T11:45:27;2.25;;;1.45;;
25549;SDS011;13444;50.562;7.262;2023-03-13T11:50:54;1.92;;;1.40;;
25549;SDS011;13444;50.562;7.262;2023-03-13T11:56:26;3.33;;;1.27;;
25549;SDS011;13444;50.562;7.262;2023-03-13T12:01:54;4.63;;;1.50;;
25549;SDS011;13444;50.562;7.262;2023-03-13T12:04:33;3.20;;;1.70;;
25549;SDS011;13444;50.562;7.262;2023-03-13T12:07:09;6.20;;;2.83;;
25549;SDS011;13444;50.562;7.262;2023-03-13T12:09:58;3.55;;;1.75;;
25549;SDS011;13444;50.562;7.262;2023-03-13T12:15:31;2.83;;;1.23;;
25549;SDS011;13444;50.562;7.262;2023-03-13T12:18:05;1.67;;;0.95;;
25549;SDS011;13444;50.562;7.262;2023-03-13T12:20:51;2.13;;;1.20;;
25549;SDS011;13444;50.562;7.262;2023-03-13T12:26:13;1.35;;;0.90;;
25549;SDS011;13444;50.562;7.262;2023-03-13T12:35:23;4.57;;;1.20;;
25549;SDS011;13444;50.562;7.262;2023-03-13T12:37:59;2.13;;;0.90;;
25549;SDS011;13444;50.562;7.262;2023-03-13T12:40:40;2.55;;;1.00;;
25549;SDS011;13444;50.562;7.262;2023-03-13T12:43:38;1.80;;;1.10;;
25549;SDS011;13444;50.562;7.262;2023-03-13T12:51:28;1.27;;;1.00;;
25549;SDS011;13444;50.562;7.262;2023-03-13T12:54:10;1.48;;;1.08;;
25549;SDS011;13444;50.562;7.262;2023-03-13T12:59:55;3.22;;;0.95;;
25549;SDS011;13444;50.562;7.262;2023-03-13T13:02:24;1.92;;;0.90;;
25549;SDS011;13444;50.562;7.262;2023-03-13T13:04:52;2.42;;;1.08;;
25549;SDS011;13444;50.562;7.262;2023-03-13T13:07:21;1.70;;;0.98;;
25549;SDS011;13444;50.562;7.262;2023-03-13T13:12:35;1.88;;;0.73;;
25549;SDS011;13444;50.562;7.262;2023-03-13T13:17:49;1.58;;;0.95;;
25549;SDS011;13444;50.562;7.262;2023-03-13T13:22:56;1.40;;;0.73;;
25549;SDS011;13444;50.562;7.262;2023-03-13T13:25:42;1.02;;;0.80;;
25549;SDS011;13444;50.562;7.262;2023-03-13T13:28:31;1.48;;;0.90;;
25549;SDS011;13444;50.562;7.262;2023-03-13T13:30:57;0.95;;;0.80;;
25549;SDS011;13444;50.562;7.262;2023-03-13T13:33:34;0.80;;;0.57;;
25549;SDS011;13444;50.562;7.262;2023-03-13T13:38:45;0.63;;;0.52;;
25549;SDS011;13444;50.562;7.262;2023-03-13T13:43:38;1.00;;;0.73;;
25549;SDS011;13444;50.562;7.262;2023-03-13T13:46:25;0.77;;;0.47;;
25549;SDS011;13444;50.562;7.262;2023-03-13T13:51:35;1.83;;;0.63;;
25549;SDS011;13444;50.562;7.262;2023-03-13T13:54:29;1.23;;;0.60;;
25549;SDS011;13444;50.562;7.262;2023-03-13T13:57:18;3.00;;;0.70;;
25549;SDS011;13444;50.562;7.262;2023-03-13T13:59:46;2.22;;;0.55;;
25549;SDS011;13444;50.562;7.262;2023-03-13T14:02:19;0.93;;;0.32;;
25549;SDS011;13444;50.562;7.262;2023-03-13T14:04:55;1.40;;;0.50;;
25549;SDS011;13444;50.562;7.262;2023-03-13T14:07:39;0.50;;;0.30;;
25549;SDS011;13444;50.562;7.262;2023-03-13T14:12:46;0.50;;;0.50;;
25549;SDS011;13444;50.562;7.262;2023-03-13T14:15:23;2.33;;;0.50;;
25549;SDS011;13444;50.562;7.262;2023-03-13T14:17:56;2.22;;;0.40;;
25549;SDS011;13444;50.562;7.262;2023-03-13T14:20:35;0.47;;;0.40;;
25549;SDS011;13444;50.562;7.262;2023-03-13T14:23:09;0.57;;;0.40;;
25549;SDS011;13444;50.562;7.262;2023-03-13T14:25:39;1.83;;;0.63;;
25549;SDS011;13444;50.562;7.262;2023-03-13T14:28:17;0.60;;;0.40;;
25549;SDS011;13444;50.562;7.262;2023-03-13T14:30:43;1.23;;;0.35;;
25549;SDS011;13444;50.562;7.262;2023-03-13T14:33:10;0.60;;;0.40;;
25549;SDS011;13444;50.562;7.262;2023-03-13T14:35:35;0.50;;;0.50;;
25549;SDS011;13444;50.562;7.262;2023-03-13T14:38:01;0.40;;;0.40;;
25549;SDS011;13444;50.562;7.262;2023-03-13T14:40:28;0.30;;;0.30;;
25549;SDS011;13444;50.562;7.262;2023-03-13T14:42:59;2.80;;;0.60;;
25549;SDS011;13444;50.562;7.262;2023-03-13T14:45:32;2.17;;;0.38;;
25549;SDS011;13444;50.562;7.262;2023-03-13T14:48:02;1.27;;;0.50;;
25549;SDS011;13444;50.562;7.262;2023-03-13T14:50:34;0.45;;;0.30;;
25549;SDS011;13444;50.562;7.262;2023-03-13T14:53:01;0.60;;;0.30;;
25549;SDS011;13444;50.562;7.262;2023-03-13T14:55:35;0.60;;;0.40;;
25549;SDS011;13444;50.562;7.262;2023-03-13T14:58:05;0.73;;;0.60;;
25549;SDS011;13444;50.562;7.262;2023-03-13T15:00:50;2.47;;;0.40;;
25549;SDS011;13444;50.562;7.262;2023-03-13T15:08:38;1.30;;;0.43;;
25549;SDS011;13444;50.562;7.262;2023-03-13T15:14:29;2.83;;;0.90;;
25549;SDS011;13444;50.562;7.262;2023-03-13T15:19:59;1.10;;;0.60;;
25549;SDS011;13444;50.562;7.262;2023-03-13T15:22:26;2.50;;;1.02;;
25549;SDS011;13444;50.562;7.262;2023-03-13T15:24:56;3.47;;;0.80;;
25549;SDS011;13444;50.562;7.262;2023-03-13T15:27:23;3.33;;;1.13;;
25549;SDS011;13444;50.562;7.262;2023-03-13T15:29:49;0.98;;;0.50;;
25549;SDS011;13444;50.562;7.262;2023-03-13T15:32:26;2.20;;;1.00;;
25549;SDS011;13444;50.562;7.262;2023-03-13T15:34:54;0.73;;;0.60;;
25549;SDS011;13444;50.562;7.262;2023-03-13T15:37:25;1.63;;;0.60;;
25549;SDS011;13444;50.562;7.262;2023-03-13T15:39:52;6.43;;;0.68;;
25549;SDS011;13444;50.562;7.262;2023-03-13T15:42:19;9.88;;;0.82;;
25549;SDS011;13444;50.562;7.262;2023-03-13T15:44:45;1.67;;;0.60;;
25549;SDS011;13444;50.562;7.262;2023-03-13T15:47:17;1.75;;;0.50;;
25549;SDS011;13444;50.562;7.262;2023-03-13T15:49:45;1.05;;;0.63;;
25549;SDS011;13444;50.562;7.262;2023-03-13T15:52:12;0.73;;;0.50;;
25549;SDS011;13444;50.562;7.262;2023-03-13T15:54:46;1.50;;;0.65;;
25549;SDS011;13444;50.562;7.262;2023-03-13T15:57:13;1.75;;;0.90;;
25549;SDS011;13444;50.562;7.262;2023-03-13T15:59:41;1.23;;;0.70;;
25549;SDS011;13444;50.562;7.262;2023-03-13T16:02:12;2.85;;;1.90;;
25549;SDS011;13444;50.562;7.262;2023-03-13T16:04:43;3.58;;;2.00;;
25549;SDS011;13444;50.562;7.262;2023-03-13T16:07:10;1.98;;;1.65;;
25549;SDS011;13444;50.562;7.262;2023-03-13T16:09:37;4.32;;;2.17;;
25549;SDS011;13444;50.562;7.262;2023-03-13T16:12:03;3.58;;;1.70;;
25549;SDS011;13444;50.562;7.262;2023-03-13T16:14:29;2.60;;;1.00;;
25549;SDS011;13444;50.562;7.262;2023-03-13T16:16:54;1.23;;;0.80;;
25549;SDS011;13444;50.562;7.262;2023-03-13T16:19:20;2.83;;;0.82;;
25549;SDS011;13444;50.562;7.262;2023-03-13T16:21:45;2.67;;;1.00;;
25549;SDS011;13444;50.562;7.262;2023-03-13T16:24:15;1.60;;;0.85;;
25549;SDS011;13444;50.562;7.262;2023-03-13T16:26:44;2.83;;;1.35;;
25549;SDS011;13444;50.562;7.262;2023-03-13T16:29:14;0.82;;;0.55;;